sensor_id;sensor_type;location;lat;lon;timestamp;temperature;humidity
70708;SHT30;58277;47.316;18.908;2022-07-23T00:00:11;25.75;52.29
70708;SHT30;58277;47.316;18.908;2022-07-23T00:02:34;25.80;51.74
70708;SHT30;58277;47.316;18.908;2022-07-23T00:04:56;25.80;51.39
70708;SHT30;58277;47.316;18.908;2022-07-23T00:07:19;25.84;50.89
70708;SHT30;58277;47.316;18.908;2022-07-23T00:09:42;25.84;50.62
70708;SHT30;58277;47.316;18.908;2022-07-23T00:12:05;25.85;50.60
70708;SHT30;58277;47.316;18.908;2022-07-23T00:14:27;25.78;50.78
70708;SHT30;58277;47.316;18.908;2022-07-23T00:16:50;25.57;51.98
70708;SHT30;58277;47.316;18.908;2022-07-23T00:19:13;25.34;52.75
70708;SHT30;58277;47.316;18.908;2022-07-23T00:21:36;25.28;52.74
70708;SHT30;58277;47.316;18.908;2022-07-23T00:23:58;25.30;52.53
70708;SHT30;58277;47.316;18.908;2022-07-23T00:26:22;25.16;53.17
70708;SHT30;58277;47.316;18.908;2022-07-23T00:28:45;25.09;53.04
70708;SHT30;58277;47.316;18.908;2022-07-23T00:31:07;25.16;53.23
70708;SHT30;58277;47.316;18.908;2022-07-23T00:33:30;25.12;53.62
70708;SHT30;58277;47.316;18.908;2022-07-23T00:35:53;25.13;53.78
70708;SHT30;58277;47.316;18.908;2022-07-23T00:38:16;25.10;53.87
70708;SHT30;58277;47.316;18.908;2022-07-23T00:40:39;25.00;54.06
70708;SHT30;58277;47.316;18.908;2022-07-23T00:43:03;25.09;53.82
70708;SHT30;58277;47.316;18.908;2022-07-23T00:45:33;25.15;53.61
70708;SHT30;58277;47.316;18.908;2022-07-23T00:47:56;25.13;53.69
70708;SHT30;58277;47.316;18.908;2022-07-23T00:50:19;25.23;53.63
70708;SHT30;58277;47.316;18.908;2022-07-23T00:52:41;24.96;55.04
70708;SHT30;58277;47.316;18.908;2022-07-23T00:55:05;24.65;56.04
70708;SHT30;58277;47.316;18.908;2022-07-23T00:57:28;24.81;55.50
70708;SHT30;58277;47.316;18.908;2022-07-23T00:59:51;24.75;55.90
70708;SHT30;58277;47.316;18.908;2022-07-23T01:02:32;24.67;56.29
70708;SHT30;58277;47.316;18.908;2022-07-23T01:04:55;24.68;56.19
70708;SHT30;58277;47.316;18.908;2022-07-23T01:07:18;24.61;56.37
70708;SHT30;58277;47.316;18.908;2022-07-23T01:09:42;24.57;56.34
70708;SHT30;58277;47.316;18.908;2022-07-23T01:12:06;24.60;56.06
70708;SHT30;58277;47.316;18.908;2022-07-23T01:14:29;24.51;57.24
70708;SHT30;58277;47.316;18.908;2022-07-23T01:16:52;24.54;56.93
70708;SHT30;58277;47.316;18.908;2022-07-23T01:19:17;24.61;56.87
70708;SHT30;58277;47.316;18.908;2022-07-23T01:21:49;24.60;57.58
70708;SHT30;58277;47.316;18.908;2022-07-23T01:24:12;24.64;57.46
70708;SHT30;58277;47.316;18.908;2022-07-23T01:26:44;24.64;58.32
70708;SHT30;58277;47.316;18.908;2022-07-23T01:29:07;24.57;56.98
70708;SHT30;58277;47.316;18.908;2022-07-23T01:31:30;24.58;56.87
70708;SHT30;58277;47.316;18.908;2022-07-23T01:33:53;24.58;56.71
70708;SHT30;58277;47.316;18.908;2022-07-23T01:36:16;24.51;56.59
70708;SHT30;58277;47.316;18.908;2022-07-23T01:38:39;24.50;56.43
70708;SHT30;58277;47.316;18.908;2022-07-23T01:41:02;24.50;56.05
70708;SHT30;58277;47.316;18.908;2022-07-23T01:43:27;24.45;56.23
70708;SHT30;58277;47.316;18.908;2022-07-23T01:45:49;24.38;56.79
70708;SHT30;58277;47.316;18.908;2022-07-23T01:48:12;24.50;56.10
70708;SHT30;58277;47.316;18.908;2022-07-23T01:50:46;24.45;55.93
70708;SHT30;58277;47.316;18.908;2022-07-23T01:53:25;24.31;56.69
70708;SHT30;58277;47.316;18.908;2022-07-23T01:55:48;24.20;57.20
70708;SHT30;58277;47.316;18.908;2022-07-23T01:58:10;24.23;57.37
70708;SHT30;58277;47.316;18.908;2022-07-23T02:00:34;24.16;57.05
70708;SHT30;58277;47.316;18.908;2022-07-23T02:02:57;24.14;57.37
70708;SHT30;58277;47.316;18.908;2022-07-23T02:05:23;24.09;57.28
70708;SHT30;58277;47.316;18.908;2022-07-23T02:07:46;24.06;57.36
70708;SHT30;58277;47.316;18.908;2022-07-23T02:10:09;24.07;56.87
70708;SHT30;58277;47.316;18.908;2022-07-23T02:12:32;24.03;56.41
70708;SHT30;58277;47.316;18.908;2022-07-23T02:14:56;24.09;55.80
70708;SHT30;58277;47.316;18.908;2022-07-23T02:17:20;24.04;56.12
70708;SHT30;58277;47.316;18.908;2022-07-23T02:19:42;24.07;56.09
70708;SHT30;58277;47.316;18.908;2022-07-23T02:22:05;23.99;56.33
70708;SHT30;58277;47.316;18.908;2022-07-23T02:24:28;24.04;56.19
70708;SHT30;58277;47.316;18.908;2022-07-23T02:26:50;24.03;56.37
70708;SHT30;58277;47.316;18.908;2022-07-23T02:29:13;23.96;56.70
70708;SHT30;58277;47.316;18.908;2022-07-23T02:31:36;23.94;57.12
70708;SHT30;58277;47.316;18.908;2022-07-23T02:34:00;23.97;57.07
70708;SHT30;58277;47.316;18.908;2022-07-23T02:36:23;24.04;57.20
70708;SHT30;58277;47.316;18.908;2022-07-23T02:38:48;24.07;57.29
70708;SHT30;58277;47.316;18.908;2022-07-23T02:41:11;24.12;57.23
70708;SHT30;58277;47.316;18.908;2022-07-23T02:43:34;24.09;57.51
70708;SHT30;58277;47.316;18.908;2022-07-23T02:45:57;24.12;57.40
70708;SHT30;58277;47.316;18.908;2022-07-23T02:48:20;24.10;57.51
70708;SHT30;58277;47.316;18.908;2022-07-23T02:50:43;24.07;58.07
70708;SHT30;58277;47.316;18.908;2022-07-23T02:53:09;24.16;57.79
70708;SHT30;58277;47.316;18.908;2022-07-23T02:55:34;24.09;57.79
70708;SHT30;58277;47.316;18.908;2022-07-23T02:57:57;24.02;57.93
70708;SHT30;58277;47.316;18.908;2022-07-23T03:00:20;24.00;57.78
70708;SHT30;58277;47.316;18.908;2022-07-23T03:02:43;24.06;57.59
70708;SHT30;58277;47.316;18.908;2022-07-23T03:05:06;24.03;57.51
70708;SHT30;58277;47.316;18.908;2022-07-23T03:07:29;24.04;57.55
70708;SHT30;58277;47.316;18.908;2022-07-23T03:09:52;24.10;57.40
70708;SHT30;58277;47.316;18.908;2022-07-23T03:12:15;24.12;57.44
70708;SHT30;58277;47.316;18.908;2022-07-23T03:14:37;24.13;57.48
70708;SHT30;58277;47.316;18.908;2022-07-23T03:17:01;24.13;57.92
70708;SHT30;58277;47.316;18.908;2022-07-23T03:19:25;24.13;57.84
70708;SHT30;58277;47.316;18.908;2022-07-23T03:21:48;24.03;58.04
70708;SHT30;58277;47.316;18.908;2022-07-23T03:24:11;24.09;57.83
70708;SHT30;58277;47.316;18.908;2022-07-23T03:26:33;24.12;57.92
70708;SHT30;58277;47.316;18.908;2022-07-23T03:28:56;24.14;57.83
70708;SHT30;58277;47.316;18.908;2022-07-23T03:31:19;24.21;57.71
70708;SHT30;58277;47.316;18.908;2022-07-23T03:33:43;24.30;57.67
70708;SHT30;58277;47.316;18.908;2022-07-23T03:36:06;24.24;58.22
70708;SHT30;58277;47.316;18.908;2022-07-23T03:38:34;24.27;57.64
70708;SHT30;58277;47.316;18.908;2022-07-23T03:40:57;24.28;57.08
70708;SHT30;58277;47.316;18.908;2022-07-23T03:43:20;24.41;56.83
70708;SHT30;58277;47.316;18.908;2022-07-23T03:45:42;24.48;57.18
70708;SHT30;58277;47.316;18.908;2022-07-23T03:48:05;24.57;56.93
70708;SHT30;58277;47.316;18.908;2022-07-23T03:50:28;24.64;56.00
70708;SHT30;58277;47.316;18.908;2022-07-23T03:52:51;24.62;56.39
70708;SHT30;58277;47.316;18.908;2022-07-23T03:55:14;24.75;56.31
70708;SHT30;58277;47.316;18.908;2022-07-23T03:57:38;24.85;56.23
70708;SHT30;58277;47.316;18.908;2022-07-23T04:00:02;24.82;55.67
70708;SHT30;58277;47.316;18.908;2022-07-23T04:02:35;24.93;55.83
70708;SHT30;58277;47.316;18.908;2022-07-23T04:04:58;25.08;55.94
70708;SHT30;58277;47.316;18.908;2022-07-23T04:07:22;25.16;55.50
70708;SHT30;58277;47.316;18.908;2022-07-23T04:09:45;25.10;55.77
70708;SHT30;58277;47.316;18.908;2022-07-23T04:12:08;25.15;55.90
70708;SHT30;58277;47.316;18.908;2022-07-23T04:14:31;25.17;55.62
70708;SHT30;58277;47.316;18.908;2022-07-23T04:16:53;25.13;55.81
70708;SHT30;58277;47.316;18.908;2022-07-23T04:19:16;25.08;55.97
70708;SHT30;58277;47.316;18.908;2022-07-23T04:22:07;25.08;55.99
70708;SHT30;58277;47.316;18.908;2022-07-23T04:24:31;25.09;55.84
70708;SHT30;58277;47.316;18.908;2022-07-23T04:26:54;25.15;55.58
70708;SHT30;58277;47.316;18.908;2022-07-23T04:29:17;25.43;55.00
70708;SHT30;58277;47.316;18.908;2022-07-23T04:31:39;25.86;53.67
70708;SHT30;58277;47.316;18.908;2022-07-23T04:34:02;25.96;53.34
70708;SHT30;58277;47.316;18.908;2022-07-23T04:36:25;25.81;53.89
70708;SHT30;58277;47.316;18.908;2022-07-23T04:38:48;25.55;54.55
70708;SHT30;58277;47.316;18.908;2022-07-23T04:41:15;25.48;54.99
70708;SHT30;58277;47.316;18.908;2022-07-23T04:43:37;25.44;54.68
70708;SHT30;58277;47.316;18.908;2022-07-23T04:46:00;25.53;54.25
70708;SHT30;58277;47.316;18.908;2022-07-23T04:48:29;25.51;54.84
70708;SHT30;58277;47.316;18.908;2022-07-23T04:51:03;25.67;55.11
70708;SHT30;58277;47.316;18.908;2022-07-23T04:53:25;25.81;54.23
70708;SHT30;58277;47.316;18.908;2022-07-23T04:55:52;25.96;54.24
70708;SHT30;58277;47.316;18.908;2022-07-23T04:58:15;25.88;52.41
70708;SHT30;58277;47.316;18.908;2022-07-23T05:00:37;26.15;52.05
70708;SHT30;58277;47.316;18.908;2022-07-23T05:03:00;26.33;50.56
70708;SHT30;58277;47.316;18.908;2022-07-23T05:05:23;26.43;50.10
70708;SHT30;58277;47.316;18.908;2022-07-23T05:07:49;26.63;50.29
70708;SHT30;58277;47.316;18.908;2022-07-23T05:10:12;26.94;48.94
70708;SHT30;58277;47.316;18.908;2022-07-23T05:12:35;27.11;48.89
70708;SHT30;58277;47.316;18.908;2022-07-23T05:14:57;27.32;49.32
70708;SHT30;58277;47.316;18.908;2022-07-23T05:17:21;27.50;48.62
70708;SHT30;58277;47.316;18.908;2022-07-23T05:19:43;27.64;48.44
70708;SHT30;58277;47.316;18.908;2022-07-23T05:22:06;27.67;48.61
70708;SHT30;58277;47.316;18.908;2022-07-23T05:24:29;27.59;49.01
70708;SHT30;58277;47.316;18.908;2022-07-23T05:26:52;27.69;48.88
70708;SHT30;58277;47.316;18.908;2022-07-23T05:29:15;27.77;48.31
70708;SHT30;58277;47.316;18.908;2022-07-23T05:31:37;27.63;48.60
70708;SHT30;58277;47.316;18.908;2022-07-23T05:34:01;27.81;48.91
70708;SHT30;58277;47.316;18.908;2022-07-23T05:36:24;27.59;50.00
70708;SHT30;58277;47.316;18.908;2022-07-23T05:38:49;27.39;50.46
70708;SHT30;58277;47.316;18.908;2022-07-23T05:41:12;27.39;50.21
70708;SHT30;58277;47.316;18.908;2022-07-23T05:43:34;27.39;50.23
70708;SHT30;58277;47.316;18.908;2022-07-23T05:46:03;27.63;50.49
70708;SHT30;58277;47.316;18.908;2022-07-23T05:48:27;27.93;51.52
70708;SHT30;58277;47.316;18.908;2022-07-23T05:50:57;28.08;50.09
70708;SHT30;58277;47.316;18.908;2022-07-23T05:53:27;28.04;48.80
70708;SHT30;58277;47.316;18.908;2022-07-23T05:55:56;28.07;48.82
70708;SHT30;58277;47.316;18.908;2022-07-23T05:58:19;28.19;47.21
70708;SHT30;58277;47.316;18.908;2022-07-23T06:00:42;28.00;46.96
70708;SHT30;58277;47.316;18.908;2022-07-23T06:03:05;28.31;46.77
70708;SHT30;58277;47.316;18.908;2022-07-23T06:05:28;28.60;47.47
70708;SHT30;58277;47.316;18.908;2022-07-23T06:07:52;28.55;46.88
70708;SHT30;58277;47.316;18.908;2022-07-23T06:10:17;28.52;47.54
70708;SHT30;58277;47.316;18.908;2022-07-23T06:12:40;28.62;46.94
70708;SHT30;58277;47.316;18.908;2022-07-23T06:15:04;28.86;46.90
70708;SHT30;58277;47.316;18.908;2022-07-23T06:17:32;28.94;46.64
70708;SHT30;58277;47.316;18.908;2022-07-23T06:19:56;28.84;46.85
70708;SHT30;58277;47.316;18.908;2022-07-23T06:22:18;28.77;45.60
70708;SHT30;58277;47.316;18.908;2022-07-23T06:24:41;28.87;45.98
70708;SHT30;58277;47.316;18.908;2022-07-23T06:27:04;28.96;45.07
70708;SHT30;58277;47.316;18.908;2022-07-23T06:29:28;29.04;45.25
70708;SHT30;58277;47.316;18.908;2022-07-23T06:31:51;29.30;44.74
70708;SHT30;58277;47.316;18.908;2022-07-23T06:34:14;29.20;44.98
70708;SHT30;58277;47.316;18.908;2022-07-23T06:36:36;29.28;45.44
70708;SHT30;58277;47.316;18.908;2022-07-23T06:39:01;29.44;45.30
70708;SHT30;58277;47.316;18.908;2022-07-23T06:41:25;29.78;44.21
70708;SHT30;58277;47.316;18.908;2022-07-23T06:43:48;29.78;44.76
70708;SHT30;58277;47.316;18.908;2022-07-23T06:46:12;29.68;44.29
70708;SHT30;58277;47.316;18.908;2022-07-23T06:48:34;29.63;43.78
70708;SHT30;58277;47.316;18.908;2022-07-23T06:50:58;30.14;43.59
70708;SHT30;58277;47.316;18.908;2022-07-23T06:53:21;30.60;42.12
70708;SHT30;58277;47.316;18.908;2022-07-23T06:55:43;30.67;42.49
70708;SHT30;58277;47.316;18.908;2022-07-23T06:58:07;31.11;42.30
70708;SHT30;58277;47.316;18.908;2022-07-23T07:00:32;31.40;41.84
70708;SHT30;58277;47.316;18.908;2022-07-23T07:02:55;31.73;40.11
70708;SHT30;58277;47.316;18.908;2022-07-23T07:05:18;31.92;39.34
70708;SHT30;58277;47.316;18.908;2022-07-23T07:07:40;31.95;37.90
70708;SHT30;58277;47.316;18.908;2022-07-23T07:10:04;31.87;38.36
70708;SHT30;58277;47.316;18.908;2022-07-23T07:12:27;31.54;39.84
70708;SHT30;58277;47.316;18.908;2022-07-23T07:14:50;31.34;39.99
70708;SHT30;58277;47.316;18.908;2022-07-23T07:17:12;31.16;39.32
70708;SHT30;58277;47.316;18.908;2022-07-23T07:19:36;31.03;40.59
70708;SHT30;58277;47.316;18.908;2022-07-23T07:21:59;30.95;40.09
70708;SHT30;58277;47.316;18.908;2022-07-23T07:24:21;30.96;39.45
70708;SHT30;58277;47.316;18.908;2022-07-23T07:26:49;30.99;40.94
70708;SHT30;58277;47.316;18.908;2022-07-23T07:29:12;31.06;40.14
70708;SHT30;58277;47.316;18.908;2022-07-23T07:31:35;31.11;40.40
70708;SHT30;58277;47.316;18.908;2022-07-23T07:33:58;31.67;39.85
70708;SHT30;58277;47.316;18.908;2022-07-23T07:36:21;31.84;38.68
70708;SHT30;58277;47.316;18.908;2022-07-23T07:38:43;32.02;37.40
70708;SHT30;58277;47.316;18.908;2022-07-23T07:41:06;31.99;39.01
70708;SHT30;58277;47.316;18.908;2022-07-23T07:43:29;32.19;37.41
70708;SHT30;58277;47.316;18.908;2022-07-23T07:45:52;32.26;36.74
70708;SHT30;58277;47.316;18.908;2022-07-23T07:48:15;32.24;38.12
70708;SHT30;58277;47.316;18.908;2022-07-23T07:50:38;32.08;38.22
70708;SHT30;58277;47.316;18.908;2022-07-23T07:53:01;32.09;38.33
70708;SHT30;58277;47.316;18.908;2022-07-23T07:55:23;32.04;39.00
70708;SHT30;58277;47.316;18.908;2022-07-23T07:57:47;32.32;37.64
70708;SHT30;58277;47.316;18.908;2022-07-23T08:00:11;32.63;37.41
70708;SHT30;58277;47.316;18.908;2022-07-23T08:02:51;33.08;36.65
70708;SHT30;58277;47.316;18.908;2022-07-23T08:05:25;32.91;37.53
70708;SHT30;58277;47.316;18.908;2022-07-23T08:07:50;32.67;36.99
70708;SHT30;58277;47.316;18.908;2022-07-23T08:10:13;32.77;36.23
70708;SHT30;58277;47.316;18.908;2022-07-23T08:12:44;32.67;37.28
70708;SHT30;58277;47.316;18.908;2022-07-23T08:15:08;32.94;35.98
70708;SHT30;58277;47.316;18.908;2022-07-23T08:17:35;32.81;36.61
70708;SHT30;58277;47.316;18.908;2022-07-23T08:19:58;32.64;35.88
70708;SHT30;58277;47.316;18.908;2022-07-23T08:22:21;32.74;36.26
70708;SHT30;58277;47.316;18.908;2022-07-23T08:24:43;33.00;35.60
70708;SHT30;58277;47.316;18.908;2022-07-23T08:27:06;32.90;35.19
70708;SHT30;58277;47.316;18.908;2022-07-23T08:29:29;32.92;34.63
70708;SHT30;58277;47.316;18.908;2022-07-23T08:31:51;33.11;35.49
70708;SHT30;58277;47.316;18.908;2022-07-23T08:34:14;33.21;34.60
70708;SHT30;58277;47.316;18.908;2022-07-23T08:36:36;33.48;33.99
70708;SHT30;58277;47.316;18.908;2022-07-23T08:39:00;33.76;34.73
70708;SHT30;58277;47.316;18.908;2022-07-23T08:41:25;33.76;33.85
70708;SHT30;58277;47.316;18.908;2022-07-23T08:43:47;33.73;33.26
70708;SHT30;58277;47.316;18.908;2022-07-23T08:46:10;33.73;34.54
70708;SHT30;58277;47.316;18.908;2022-07-23T08:48:35;33.85;34.22
70708;SHT30;58277;47.316;18.908;2022-07-23T08:51:02;33.92;34.19
70708;SHT30;58277;47.316;18.908;2022-07-23T08:53:27;34.02;33.04
70708;SHT30;58277;47.316;18.908;2022-07-23T08:55:56;34.20;33.78
70708;SHT30;58277;47.316;18.908;2022-07-23T08:58:20;34.17;32.53
70708;SHT30;58277;47.316;18.908;2022-07-23T09:00:49;34.17;32.16
70708;SHT30;58277;47.316;18.908;2022-07-23T09:03:18;34.21;32.54
70708;SHT30;58277;47.316;18.908;2022-07-23T09:05:41;34.40;32.90
70708;SHT30;58277;47.316;18.908;2022-07-23T09:08:13;34.44;31.55
70708;SHT30;58277;47.316;18.908;2022-07-23T09:10:52;34.69;31.45
70708;SHT30;58277;47.316;18.908;2022-07-23T09:15:51;34.84;31.80
70708;SHT30;58277;47.316;18.908;2022-07-23T09:18:15;34.88;31.31
70708;SHT30;58277;47.316;18.908;2022-07-23T09:20:38;35.02;30.86
70708;SHT30;58277;47.316;18.908;2022-07-23T09:23:00;35.26;29.95
70708;SHT30;58277;47.316;18.908;2022-07-23T09:25:34;35.30;29.98
70708;SHT30;58277;47.316;18.908;2022-07-23T09:27:59;35.46;29.98
70708;SHT30;58277;47.316;18.908;2022-07-23T09:30:27;35.46;30.86
70708;SHT30;58277;47.316;18.908;2022-07-23T09:38:06;35.49;30.40
70708;SHT30;58277;47.316;18.908;2022-07-23T09:40:28;35.50;30.48
70708;SHT30;58277;47.316;18.908;2022-07-23T09:42:55;35.88;30.23
70708;SHT30;58277;47.316;18.908;2022-07-23T09:45:18;36.06;29.61
70708;SHT30;58277;47.316;18.908;2022-07-23T09:47:41;36.25;29.42
70708;SHT30;58277;47.316;18.908;2022-07-23T09:50:09;36.49;28.30
70708;SHT30;58277;47.316;18.908;2022-07-23T09:52:45;36.62;28.60
70708;SHT30;58277;47.316;18.908;2022-07-23T09:55:10;36.84;27.64
70708;SHT30;58277;47.316;18.908;2022-07-23T09:57:33;36.70;28.19
70708;SHT30;58277;47.316;18.908;2022-07-23T09:59:58;36.74;27.93
70708;SHT30;58277;47.316;18.908;2022-07-23T10:02:21;36.90;28.06
70708;SHT30;58277;47.316;18.908;2022-07-23T10:05:08;36.52;29.63
70708;SHT30;58277;47.316;18.908;2022-07-23T10:08:02;36.95;28.67
70708;SHT30;58277;47.316;18.908;2022-07-23T10:10:31;36.76;28.47
70708;SHT30;58277;47.316;18.908;2022-07-23T10:13:30;36.19;29.72
70708;SHT30;58277;47.316;18.908;2022-07-23T10:16:31;36.59;28.89
70708;SHT30;58277;47.316;18.908;2022-07-23T10:18:55;36.98;28.41
70708;SHT30;58277;47.316;18.908;2022-07-23T10:24:41;37.22;27.42
70708;SHT30;58277;47.316;18.908;2022-07-23T10:30:07;37.54;26.99
70708;SHT30;58277;47.316;18.908;2022-07-23T10:35:37;37.68;26.34
70708;SHT30;58277;47.316;18.908;2022-07-23T10:38:13;37.76;27.67
70708;SHT30;58277;47.316;18.908;2022-07-23T10:40:37;37.87;27.00
70708;SHT30;58277;47.316;18.908;2022-07-23T10:43:00;37.83;26.27
70708;SHT30;58277;47.316;18.908;2022-07-23T10:45:30;37.87;26.99
70708;SHT30;58277;47.316;18.908;2022-07-23T10:47:54;37.77;25.53
70708;SHT30;58277;47.316;18.908;2022-07-23T10:50:18;37.89;25.94
70708;SHT30;58277;47.316;18.908;2022-07-23T10:52:41;38.02;26.55
70708;SHT30;58277;47.316;18.908;2022-07-23T10:57:47;37.69;27.13
70708;SHT30;58277;47.316;18.908;2022-07-23T11:00:13;37.64;26.34
70708;SHT30;58277;47.316;18.908;2022-07-23T11:03:00;37.87;27.57
70708;SHT30;58277;47.316;18.908;2022-07-23T11:05:41;38.12;25.96
70708;SHT30;58277;47.316;18.908;2022-07-23T11:16:20;38.04;26.14
70708;SHT30;58277;47.316;18.908;2022-07-23T11:24:10;38.54;24.92
70708;SHT30;58277;47.316;18.908;2022-07-23T11:26:52;38.60;25.14
70708;SHT30;58277;47.316;18.908;2022-07-23T11:36:56;38.52;25.20
70708;SHT30;58277;47.316;18.908;2022-07-23T11:39:20;38.60;25.15
70708;SHT30;58277;47.316;18.908;2022-07-23T11:41:46;38.94;25.21
70708;SHT30;58277;47.316;18.908;2022-07-23T11:44:29;39.08;23.20
70708;SHT30;58277;47.316;18.908;2022-07-23T11:47:07;39.13;24.25
70708;SHT30;58277;47.316;18.908;2022-07-23T11:49:30;39.15;23.69
70708;SHT30;58277;47.316;18.908;2022-07-23T11:54:28;39.36;23.54
70708;SHT30;58277;47.316;18.908;2022-07-23T11:56:58;39.43;23.31
70708;SHT30;58277;47.316;18.908;2022-07-23T11:59:21;39.65;22.73
70708;SHT30;58277;47.316;18.908;2022-07-23T12:04:21;39.54;22.33
70708;SHT30;58277;47.316;18.908;2022-07-23T12:06:44;39.63;21.75
70708;SHT30;58277;47.316;18.908;2022-07-23T12:09:06;39.49;21.44
70708;SHT30;58277;47.316;18.908;2022-07-23T12:11:30;39.47;22.19
70708;SHT30;58277;47.316;18.908;2022-07-23T12:13:57;39.57;22.56
70708;SHT30;58277;47.316;18.908;2022-07-23T12:16:20;39.71;21.91
70708;SHT30;58277;47.316;18.908;2022-07-23T12:18:45;39.91;22.07
70708;SHT30;58277;47.316;18.908;2022-07-23T12:21:07;39.92;22.88
70708;SHT30;58277;47.316;18.908;2022-07-23T12:23:31;40.08;22.28
70708;SHT30;58277;47.316;18.908;2022-07-23T12:25:54;40.12;21.96
70708;SHT30;58277;47.316;18.908;2022-07-23T12:28:41;39.97;22.47
70708;SHT30;58277;47.316;18.908;2022-07-23T12:31:04;39.77;22.96
70708;SHT30;58277;47.316;18.908;2022-07-23T12:33:32;39.16;24.32
70708;SHT30;58277;47.316;18.908;2022-07-23T12:35:59;38.71;23.97
70708;SHT30;58277;47.316;18.908;2022-07-23T12:38:25;38.79;23.90
70708;SHT30;58277;47.316;18.908;2022-07-23T12:43:35;38.94;22.91
70708;SHT30;58277;47.316;18.908;2022-07-23T12:46:07;39.29;23.25
70708;SHT30;58277;47.316;18.908;2022-07-23T12:48:38;39.44;22.97
70708;SHT30;58277;47.316;18.908;2022-07-23T12:51:03;38.88;23.58
70708;SHT30;58277;47.316;18.908;2022-07-23T12:53:41;38.54;24.45
70708;SHT30;58277;47.316;18.908;2022-07-23T12:56:06;38.34;23.51
70708;SHT30;58277;47.316;18.908;2022-07-23T12:58:44;38.48;23.42
70708;SHT30;58277;47.316;18.908;2022-07-23T13:03:58;38.65;24.00
70708;SHT30;58277;47.316;18.908;2022-07-23T13:06:22;38.99;23.61
70708;SHT30;58277;47.316;18.908;2022-07-23T13:08:45;39.19;23.42
70708;SHT30;58277;47.316;18.908;2022-07-23T13:11:08;39.35;23.04
70708;SHT30;58277;47.316;18.908;2022-07-23T13:13:32;39.56;22.68
70708;SHT30;58277;47.316;18.908;2022-07-23T13:15:56;39.65;22.02
70708;SHT30;58277;47.316;18.908;2022-07-23T13:18:20;39.77;21.91
70708;SHT30;58277;47.316;18.908;2022-07-23T13:20:47;39.70;23.27
70708;SHT30;58277;47.316;18.908;2022-07-23T13:23:12;39.74;22.97
70708;SHT30;58277;47.316;18.908;2022-07-23T13:25:35;39.75;22.86
70708;SHT30;58277;47.316;18.908;2022-07-23T13:27:59;39.63;21.95
70708;SHT30;58277;47.316;18.908;2022-07-23T13:30:22;39.64;22.15
70708;SHT30;58277;47.316;18.908;2022-07-23T13:32:47;39.61;23.20
70708;SHT30;58277;47.316;18.908;2022-07-23T13:35:10;39.27;22.71
70708;SHT30;58277;47.316;18.908;2022-07-23T13:37:35;39.12;23.26
70708;SHT30;58277;47.316;18.908;2022-07-23T13:39:58;39.25;23.60
70708;SHT30;58277;47.316;18.908;2022-07-23T13:42:21;39.15;24.01
70708;SHT30;58277;47.316;18.908;2022-07-23T13:44:45;39.12;23.84
70708;SHT30;58277;47.316;18.908;2022-07-23T13:47:09;38.75;23.87
70708;SHT30;58277;47.316;18.908;2022-07-23T13:49:32;38.60;23.89
70708;SHT30;58277;47.316;18.908;2022-07-23T13:51:56;38.79;23.29
70708;SHT30;58277;47.316;18.908;2022-07-23T13:54:20;39.02;23.03
70708;SHT30;58277;47.316;18.908;2022-07-23T13:56:43;39.15;22.71
70708;SHT30;58277;47.316;18.908;2022-07-23T13:59:06;39.15;23.31
70708;SHT30;58277;47.316;18.908;2022-07-23T14:01:29;39.22;22.83
70708;SHT30;58277;47.316;18.908;2022-07-23T14:04:11;39.29;22.58
70708;SHT30;58277;47.316;18.908;2022-07-23T14:06:35;39.31;22.66
70708;SHT30;58277;47.316;18.908;2022-07-23T14:08:59;38.45;23.67
70708;SHT30;58277;47.316;18.908;2022-07-23T14:11:22;38.68;23.65
70708;SHT30;58277;47.316;18.908;2022-07-23T14:13:47;38.67;23.83
70708;SHT30;58277;47.316;18.908;2022-07-23T14:16:09;38.64;23.39
70708;SHT30;58277;47.316;18.908;2022-07-23T14:18:32;38.76;23.03
70708;SHT30;58277;47.316;18.908;2022-07-23T14:20:55;38.82;22.85
70708;SHT30;58277;47.316;18.908;2022-07-23T14:23:18;38.74;22.78
70708;SHT30;58277;47.316;18.908;2022-07-23T14:25:41;38.83;23.59
70708;SHT30;58277;47.316;18.908;2022-07-23T14:28:04;38.94;23.95
70708;SHT30;58277;47.316;18.908;2022-07-23T14:30:27;39.03;23.35
70708;SHT30;58277;47.316;18.908;2022-07-23T14:32:56;39.20;22.81
70708;SHT30;58277;47.316;18.908;2022-07-23T14:35:18;39.23;23.41
70708;SHT30;58277;47.316;18.908;2022-07-23T14:37:42;39.33;22.84
70708;SHT30;58277;47.316;18.908;2022-07-23T14:40:05;39.22;22.31
70708;SHT30;58277;47.316;18.908;2022-07-23T14:42:29;39.35;22.03
70708;SHT30;58277;47.316;18.908;2022-07-23T14:44:52;39.31;23.04
70708;SHT30;58277;47.316;18.908;2022-07-23T14:47:15;39.26;23.28
70708;SHT30;58277;47.316;18.908;2022-07-23T14:49:45;39.17;22.62
70708;SHT30;58277;47.316;18.908;2022-07-23T14:52:10;39.09;23.12
70708;SHT30;58277;47.316;18.908;2022-07-23T14:54:33;38.89;23.18
70708;SHT30;58277;47.316;18.908;2022-07-23T14:56:57;38.60;24.08
70708;SHT30;58277;47.316;18.908;2022-07-23T14:59:21;38.41;24.11
70708;SHT30;58277;47.316;18.908;2022-07-23T15:01:44;38.13;23.72
70708;SHT30;58277;47.316;18.908;2022-07-23T15:04:07;37.96;24.07
70708;SHT30;58277;47.316;18.908;2022-07-23T15:06:50;37.69;23.92
70708;SHT30;58277;47.316;18.908;2022-07-23T15:09:14;37.43;24.33
70708;SHT30;58277;47.316;18.908;2022-07-23T15:11:36;37.28;24.29
70708;SHT30;58277;47.316;18.908;2022-07-23T15:14:00;37.02;24.59
70708;SHT30;58277;47.316;18.908;2022-07-23T15:16:23;36.87;24.75
70708;SHT30;58277;47.316;18.908;2022-07-23T15:18:46;36.72;24.58
70708;SHT30;58277;47.316;18.908;2022-07-23T15:21:09;36.56;24.85
70708;SHT30;58277;47.316;18.908;2022-07-23T15:23:32;36.43;25.03
70708;SHT30;58277;47.316;18.908;2022-07-23T15:25:57;36.36;24.94
70708;SHT30;58277;47.316;18.908;2022-07-23T15:28:21;36.24;25.25
70708;SHT30;58277;47.316;18.908;2022-07-23T15:30:43;36.02;26.16
70708;SHT30;58277;47.316;18.908;2022-07-23T15:33:06;35.61;30.78
70708;SHT30;58277;47.316;18.908;2022-07-23T15:35:40;34.96;32.96
70708;SHT30;58277;47.316;18.908;2022-07-23T15:38:04;34.20;34.98
70708;SHT30;58277;47.316;18.908;2022-07-23T15:40:34;33.61;36.28
70708;SHT30;58277;47.316;18.908;2022-07-23T15:42:59;33.19;36.73
70708;SHT30;58277;47.316;18.908;2022-07-23T15:45:22;32.80;36.72
70708;SHT30;58277;47.316;18.908;2022-07-23T15:47:47;32.44;37.71
70708;SHT30;58277;47.316;18.908;2022-07-23T15:50:10;32.26;38.40
70708;SHT30;58277;47.316;18.908;2022-07-23T15:52:33;32.11;38.96